Item Display Status Humidity-temperature Sensor

Elevation Above Sea Level: 3 m

 

Deployed Sensor

  • Serial Number: 20370375
  • NDBC Property Number: 43940
  • Start Date: 6/29/2021 (10:16:09 Z)
  • End Date: Currently Active
Relative Humidity [%]     6 entries per hour
Showing data from 9/27/2022 (13:00:00 Z) to 9/26/2022 (00:00:01 Z)
Previous Next [ Day | 3-Days | 7-Days ]
First Last
Prev [ Day | 3-Days | 7-Days ] Next
First Last

Start Time:     :
End Time:     :     
Time (in GMT) :00 :50 :40 :30 :20 :10
Previous Next [ Day | 3-Days | 7-Days ]
First Last
Prev [ Day | 3-Days | 7-Days ] Next
First Last


123 => good data
MM => data is determined as missing
-- => data not received/configured
Back to Top Back to Top
9/27/2022 13:00 to 12:10 95.20 95.12 95.01 95.26 95.26 95.36
9/27/2022 12:00 to 11:10 95.34 95.52 95.50 95.68 95.94 95.88
9/27/2022 11:00 to 10:10 95.96 96.21 96.02 95.70 95.54 95.52
9/27/2022 10:00 to 9:10 95.50 95.64 96.06 96.29 96.39 96.67
9/27/2022 09:00 to 8:10 97.42 97.72 97.82 98.08 98.37 98.77
9/27/2022 08:00 to 7:10 98.95 98.89 98.73 98.51 98.25 97.96
9/27/2022 07:00 to 6:10 97.64 97.36 96.93 96.47 96.04 95.76
9/27/2022 06:00 to 5:10 95.24 95.01 94.67 94.33 94.13 93.86
9/27/2022 05:00 to 4:10 93.70 93.70 93.74 93.60 93.30 92.77
9/27/2022 04:00 to 3:10 92.63 93.26 94.17 93.96 93.68 93.98
9/27/2022 03:00 to 2:10 95.22 96.08 96.79 97.52 97.68 97.42
9/27/2022 02:00 to 1:10 96.81 95.20 94.63 94.77 95.26 94.91
9/27/2022 01:00 to 0:10 94.27 93.98 92.99 92.77 92.45 92.29
9/27/2022 00:00 to 23:10 92.07 92.55 92.47 92.61 93.62 94.43
9/26/2022 23:00 to 22:10 94.35 93.98 94.21 93.98 93.54 93.76
9/26/2022 22:00 to 21:10 93.96 94.11 94.49 94.69 94.31 94.65
9/26/2022 21:00 to 20:10 94.99 94.97 94.77 95.05 94.89 94.65
9/26/2022 20:00 to 19:10 94.79 95.24 95.62 95.98 95.94 95.80
9/26/2022 19:00 to 18:10 95.36 94.97 94.71 94.39 94.47 95.03
9/26/2022 18:00 to 17:10 96.11 96.45 96.59 96.63 96.47 96.31
9/26/2022 17:00 to 16:10 95.66 95.48 95.66 96.11 96.51 96.61
9/26/2022 16:00 to 15:10 96.69 96.06 94.63 93.80 93.62 93.42
9/26/2022 15:00 to 14:10 93.50 93.26 92.93 93.46 93.58 95.52
9/26/2022 14:00 to 13:10 98.02 98.43 98.35 98.08 98.10 97.98
9/26/2022 13:00 to 12:10 98.23 98.39 98.59 98.83 98.87 98.93
9/26/2022 12:00 to 11:10 97.66 96.87 96.45 96.25 96.41 96.65
9/26/2022 11:00 to 10:10 97.38 97.60 97.80 97.64 97.28 97.05
9/26/2022 10:00 to 9:10 97.09 97.16 97.30 97.72 98.15 98.55
9/26/2022 09:00 to 8:10 98.95 99.03 99.03 99.11 99.09 99.11
9/26/2022 08:00 to 7:10 98.99 98.87 98.69 98.47 98.23 98.00
9/26/2022 07:00 to 6:10 97.76 97.46 97.14 96.85 96.81 97.32
9/26/2022 06:00 to 5:10 97.68 98.06 98.25 98.31 98.33 98.33
9/26/2022 05:00 to 4:10 98.37 98.31 98.27 98.23 98.17 98.17
9/26/2022 04:00 to 3:10 98.15 98.02 97.84 97.62 97.34 96.81
9/26/2022 03:00 to 2:10 96.25 95.84 95.58 95.86 95.84 95.94
9/26/2022 02:00 to 1:10 96.04 95.60 94.77 94.63 96.33 96.19
9/26/2022 01:00 to 0:10 95.74 95.62 95.36 94.47 94.33 93.52

 

 

 

Air Temperature [°C]     6 entries per hour
Showing data from 9/27/2022 (13:00:00 Z) to 9/26/2022 (00:00:01 Z)
Previous Next [ Day | 3-Days | 7-Days ]
First Last
Prev [ Day | 3-Days | 7-Days ] Next
First Last

Start Time:     :
End Time:     :     
Time (in GMT) :00 :50 :40 :30 :20 :10
Previous Next [ Day | 3-Days | 7-Days ]
First Last
Prev [ Day | 3-Days | 7-Days ] Next
First Last


123 => good data
MM => data is determined as missing
-- => data not received/configured
Back to Top Back to Top
9/27/2022 13:00 to 12:10 21.36 21.31 21.27 21.29 21.25 21.38
9/27/2022 12:00 to 11:10 21.29 21.33 21.30 21.41 21.31 21.27
9/27/2022 11:00 to 10:10 21.26 21.32 21.30 21.31 21.32 21.33
9/27/2022 10:00 to 9:10 21.36 21.36 21.36 21.41 21.39 21.41
9/27/2022 09:00 to 8:10 21.35 21.38 21.38 21.37 21.37 21.30
9/27/2022 08:00 to 7:10 21.37 21.39 21.40 21.40 21.44 21.45
9/27/2022 07:00 to 6:10 21.45 21.49 21.52 21.52 21.53 21.54
9/27/2022 06:00 to 5:10 21.57 21.58 21.57 21.59 21.62 21.62
9/27/2022 05:00 to 4:10 21.57 21.56 21.58 21.59 21.65 21.64
9/27/2022 04:00 to 3:10 21.56 21.53 21.58 21.59 21.57 21.45
9/27/2022 03:00 to 2:10 21.39 21.34 21.22 21.16 21.30 21.38
9/27/2022 02:00 to 1:10 21.45 21.68 21.54 21.67 21.69 21.82
9/27/2022 01:00 to 0:10 21.80 21.84 21.97 21.98 22.07 22.09
9/27/2022 00:00 to 23:10 22.04 22.02 21.98 21.99 21.87 21.91
9/26/2022 23:00 to 22:10 22.00 21.98 21.98 22.00 21.95 21.91
9/26/2022 22:00 to 21:10 21.86 21.88 21.82 21.86 21.84 21.76
9/26/2022 21:00 to 20:10 21.74 21.72 21.73 21.76 21.77 21.72
9/26/2022 20:00 to 19:10 21.62 21.68 21.67 21.63 21.69 21.63
9/26/2022 19:00 to 18:10 21.66 21.65 21.70 21.70 21.67 21.56
9/26/2022 18:00 to 17:10 21.51 21.59 21.66 21.62 21.61 21.61
9/26/2022 17:00 to 16:10 21.63 21.74 21.68 21.55 21.53 21.34
9/26/2022 16:00 to 15:10 21.27 21.22 21.40 21.89 21.95 22.07
9/26/2022 15:00 to 14:10 22.09 22.08 21.94 21.60 21.37 20.99
9/26/2022 14:00 to 13:10 21.13 21.24 21.18 21.23 21.11 21.04
9/26/2022 13:00 to 12:10 20.95 20.83 20.73 20.62 20.45 20.68
9/26/2022 12:00 to 11:10 20.77 21.36 21.33 21.24 21.30 21.18
9/26/2022 11:00 to 10:10 21.27 21.22 21.26 21.29 21.26 21.27
9/26/2022 10:00 to 9:10 21.31 21.26 21.26 21.23 21.21 21.18
9/26/2022 09:00 to 8:10 21.20 21.24 21.22 21.23 21.23 21.24
9/26/2022 08:00 to 7:10 21.28 21.36 21.37 21.41 21.42 21.45
9/26/2022 07:00 to 6:10 21.46 21.50 21.51 21.55 21.50 21.39
9/26/2022 06:00 to 5:10 21.39 21.37 21.40 21.42 21.41 21.38
9/26/2022 05:00 to 4:10 21.41 21.42 21.40 21.42 21.41 21.41
9/26/2022 04:00 to 3:10 21.41 21.40 21.37 21.38 21.42 21.59
9/26/2022 03:00 to 2:10 21.61 21.63 21.59 21.55 21.54 21.51
9/26/2022 02:00 to 1:10 21.54 21.65 21.59 21.49 21.43 21.65
9/26/2022 01:00 to 0:10 21.64 21.56 21.64 21.84 21.91 22.00